Time;durP1;ratioP1;P1;durP2;ratioP2;P2;SDS_P1;SDS_P2;PMS_P1;PMS_P2;Temp;Humidity;BMP_temperature;BMP_pressure;BME280_temperature;BME280_humidity;BME280_pressure;Samples;Min_cycle;Max_cycle;Signal;HPM_P1;HPM_P2
2022/09/21 00:00:39;;;;;;;4.28;1.70;;;14.50;83.00;;;;;;5056225;28;20424;-76
2022/09/21 00:03:05;;;;;;;5.30;1.80;;;14.50;83.00;;;;;;5055657;28;20029;-76
2022/09/21 00:05:32;;;;;;;2.45;1.40;;;14.50;83.00;;;;;;5056069;28;20068;-76
2022/09/21 00:08:02;;;;;;;2.33;1.10;;;14.40;83.00;;;;;;5056107;28;20057;-76
2022/09/21 00:10:32;;;;;;;2.30;1.50;;;14.40;83.00;;;;;;5055442;28;20040;-76
2022/09/21 00:12:59;;;;;;;3.35;1.60;;;14.40;83.10;;;;;;5055899;28;20064;-76
2022/09/21 00:15:25;;;;;;;5.53;1.80;;;14.30;83.00;;;;;;5055811;28;20035;-76
2022/09/21 00:17:58;;;;;;;3.17;1.58;;;14.30;83.00;;;;;;5055117;28;20033;-76
2022/09/21 00:20:26;;;;;;;2.60;1.40;;;14.30;83.10;;;;;;5055903;28;20025;-76
2022/09/21 00:22:52;;;;;;;7.28;1.67;;;14.30;83.10;;;;;;5055772;28;20029;-76
2022/09/21 00:25:19;;;;;;;4.43;1.98;;;14.30;83.20;;;;;;5054950;28;20124;-76
2022/09/21 00:27:50;;;;;;;4.15;2.08;;;14.30;83.20;;;;;;5055296;28;20032;-77
2022/09/21 00:30:17;;;;;;;5.65;1.60;;;14.30;83.20;;;;;;5054860;28;20098;-76
2022/09/21 00:32:43;;;;;;;1.85;1.40;;;14.20;83.10;;;;;;5055609;28;20040;-76
2022/09/21 00:35:08;;;;;;;5.05;1.75;;;14.30;83.30;;;;;;5056005;28;20028;-75
2022/09/21 00:37:35;;;;;;;4.60;2.50;;;14.20;83.30;;;;;;5054844;28;20773;-76
2022/09/21 00:40:04;;;;;;;3.65;2.00;;;14.20;83.40;;;;;;5054563;28;20445;-76
2022/09/21 00:42:33;;;;;;;2.80;1.52;;;14.20;83.50;;;;;;5055290;28;20052;-76
2022/09/21 00:44:59;;;;;;;3.80;1.50;;;14.20;83.50;;;;;;5054643;28;20029;-76
2022/09/21 00:47:38;;;;;;;6.95;2.00;;;14.10;83.40;;;;;;5055216;28;20492;-76
2022/09/21 00:50:10;;;;;;;5.28;1.52;;;14.10;83.40;;;;;;5055080;28;20025;-76
2022/09/21 00:52:52;;;;;;;6.28;1.83;;;14.10;83.50;;;;;;5054470;28;20045;-76
2022/09/21 00:55:29;;;;;;;4.63;1.50;;;14.10;83.50;;;;;;5053558;28;20028;-76
2022/09/21 00:58:01;;;;;;;4.00;2.05;;;14.10;83.40;;;;;;5053084;28;20049;-77
2022/09/21 01:00:27;;;;;;;3.58;1.60;;;14.00;83.30;;;;;;5049452;28;20456;-76
2022/09/21 01:03:00;;;;;;;4.10;1.65;;;14.00;83.30;;;;;;5047659;28;20029;-77
2022/09/21 01:05:27;;;;;;;5.10;2.47;;;14.00;83.40;;;;;;5052282;28;20027;-77
2022/09/21 01:07:54;;;;;;;7.32;2.05;;;14.00;83.40;;;;;;5048948;28;20051;-75
2022/09/21 01:10:20;;;;;;;2.08;1.40;;;13.90;83.40;;;;;;5054723;28;20033;-81
2022/09/21 01:13:07;;;;;;;6.05;1.73;;;13.90;83.30;;;;;;5047655;28;20045;-76
2022/09/21 01:15:51;;;;;;;3.67;1.48;;;13.90;83.30;;;;;;5054251;28;20029;-76
2022/09/21 01:18:36;;;;;;;5.20;1.90;;;13.90;83.20;;;;;;5054754;28;20100;-76
2022/09/21 01:21:19;;;;;;;5.25;2.00;;;13.90;83.40;;;;;;5053928;28;20052;-76
2022/09/21 01:23:47;;;;;;;3.30;1.85;;;13.90;83.50;;;;;;5054616;28;20120;-76
2022/09/21 01:26:47;;;;;;;8.80;2.20;;;13.80;83.50;;;;;;5047515;28;20512;-76
2022/09/21 01:29:24;;;;;;;6.15;1.70;;;13.80;83.70;;;;;;5032309;28;20072;-76
2022/09/21 01:32:13;;;;;;;5.80;1.95;;;13.80;83.90;;;;;;5032866;28;20040;-76
2022/09/21 01:35:02;;;;;;;6.35;1.83;;;13.80;84.00;;;;;;5031964;28;20033;-75
2022/09/21 01:37:39;;;;;;;4.22;1.80;;;13.80;84.00;;;;;;5032548;28;20040;-75
2022/09/21 01:40:11;;;;;;;4.88;1.80;;;13.70;83.80;;;;;;5032739;28;20055;-76
2022/09/21 01:42:40;;;;;;;3.58;1.95;;;13.70;83.70;;;;;;5031736;28;20033;-76
2022/09/21 01:45:07;;;;;;;8.55;1.90;;;13.70;83.60;;;;;;5033953;28;20472;-76
2022/09/21 01:47:36;;;;;;;2.47;1.50;;;13.70;83.60;;;;;;5044970;28;20369;-76
2022/09/21 01:50:06;;;;;;;5.63;1.70;;;13.60;83.60;;;;;;5053516;28;20086;-76
2022/09/21 01:53:07;;;;;;;2.92;1.75;;;13.60;83.70;;;;;;5053146;28;20041;-76
2022/09/21 01:55:43;;;;;;;9.55;1.95;;;13.50;83.80;;;;;;5053045;28;20112;-76
2022/09/21 01:58:19;;;;;;;3.38;1.80;;;13.50;83.80;;;;;;5053625;28;20537;-76
2022/09/21 02:00:47;;;;;;;9.07;2.00;;;13.50;83.90;;;;;;5054078;28;20435;-76
2022/09/21 02:03:25;;;;;;;4.63;2.00;;;13.40;83.90;;;;;;5053170;28;20060;-75
2022/09/21 02:05:52;;;;;;;4.07;1.85;;;13.40;84.00;;;;;;5053531;28;20388;-76
2022/09/21 02:08:17;;;;;;;3.72;1.48;;;13.50;84.00;;;;;;5053737;28;20037;-76
2022/09/21 02:10:51;;;;;;;8.63;1.98;;;13.40;84.00;;;;;;5052910;28;20108;-76
2022/09/21 02:13:19;;;;;;;3.72;1.83;;;13.40;84.00;;;;;;5053771;28;20045;-76
2022/09/21 02:16:05;;;;;;;4.95;1.60;;;13.40;83.90;;;;;;5053310;28;20034;-76
2022/09/21 02:18:56;;;;;;;8.75;1.85;;;13.40;83.90;;;;;;5053543;28;20515;-76
2022/09/21 02:21:31;;;;;;;2.97;1.88;;;13.40;84.00;;;;;;5053336;28;20116;-76
2022/09/21 02:24:19;;;;;;;4.70;1.98;;;13.40;84.10;;;;;;5052979;28;20029;-76
2022/09/21 02:26:52;;;;;;;3.97;1.80;;;13.40;84.20;;;;;;5053393;28;20120;-76
2022/09/21 02:29:33;;;;;;;4.63;1.75;;;13.30;84.20;;;;;;5053382;28;20043;-76
2022/09/21 02:32:06;;;;;;;3.85;1.70;;;13.30;84.40;;;;;;5052809;28;20128;-76
2022/09/21 02:34:57;;;;;;;4.78;1.60;;;13.30;84.40;;;;;;5053409;28;20060;-76
2022/09/21 02:37:43;;;;;;;4.20;1.60;;;13.30;84.30;;;;;;5052947;28;20106;-76
2022/09/21 02:40:33;;;;;;;7.20;1.83;;;13.30;84.30;;;;;;5053423;28;20116;-75
2022/09/21 02:43:11;;;;;;;3.60;1.70;;;13.20;84.40;;;;;;5053317;28;20029;-76
2022/09/21 02:45:44;;;;;;;6.28;1.80;;;13.20;84.40;;;;;;5052433;28;20048;-76
2022/09/21 02:48:17;;;;;;;5.47;1.55;;;13.20;84.40;;;;;;5053450;28;20126;-76
2022/09/21 02:50:50;;;;;;;2.67;1.70;;;13.10;84.30;;;;;;5053007;28;20076;-76
2022/09/21 02:53:22;;;;;;;3.40;1.50;;;13.10;84.40;;;;;;5052341;28;20238;-76
2022/09/21 02:55:51;;;;;;;3.28;1.42;;;13.10;84.50;;;;;;5053058;28;20044;-76
2022/09/21 02:58:20;;;;;;;2.10;1.70;;;13.10;84.50;;;;;;5052234;28;20094;-76
2022/09/21 03:00:45;;;;;;;4.93;1.52;;;13.10;84.70;;;;;;5053167;28;20052;-76
2022/09/21 03:03:22;;;;;;;4.72;1.83;;;13.10;84.70;;;;;;5052830;28;20464;-76
2022/09/21 03:05:50;;;;;;;4.07;1.90;;;13.00;84.70;;;;;;5052353;28;20033;-75
2022/09/21 03:08:17;;;;;;;4.93;1.80;;;13.00;84.40;;;;;;5052874;28;20043;-75
2022/09/21 03:10:43;;;;;;;5.35;1.85;;;13.00;84.40;;;;;;5053043;28;20121;-75
2022/09/21 03:13:09;;;;;;;6.78;1.77;;;12.90;84.30;;;;;;5052335;28;20106;-75
2022/09/21 03:15:36;;;;;;;5.40;2.03;;;12.80;84.40;;;;;;5052999;28;20087;-76
2022/09/21 03:18:08;;;;;;;8.75;1.90;;;12.90;84.50;;;;;;5052907;28;20107;-76
2022/09/21 03:20:34;;;;;;;8.68;2.10;;;12.80;84.50;;;;;;5051973;28;20056;-76
2022/09/21 03:23:00;;;;;;;1.95;1.70;;;12.80;84.60;;;;;;5052757;28;20104;-76
2022/09/21 03:25:28;;;;;;;4.03;2.00;;;12.70;84.80;;;;;;5052927;28;20032;-76
2022/09/21 03:27:54;;;;;;;6.18;2.00;;;12.70;84.90;;;;;;5052242;28;20442;-75
2022/09/21 03:30:20;;;;;;;5.78;1.90;;;12.70;84.90;;;;;;5052813;28;20032;-76
2022/09/21 03:32:50;;;;;;;7.05;1.83;;;12.70;84.90;;;;;;5052410;28;20080;-75
2022/09/21 03:35:17;;;;;;;6.30;1.80;;;12.70;84.90;;;;;;5052080;28;20239;-75
2022/09/21 03:37:45;;;;;;;1.95;1.60;;;12.60;84.70;;;;;;5052559;28;20045;-76
2022/09/21 03:40:11;;;;;;;9.30;2.28;;;12.60;84.70;;;;;;5052090;28;20032;-76
2022/09/21 03:42:38;;;;;;;6.88;1.92;;;12.60;84.80;;;;;;5052913;28;20041;-75
2022/09/21 03:45:04;;;;;;;4.55;2.20;;;12.60;84.90;;;;;;5055371;28;20121;-75
2022/09/21 03:47:30;;;;;;;5.75;2.17;;;12.60;85.00;;;;;;5055309;28;20047;-75
2022/09/21 03:49:56;;;;;;;4.03;2.00;;;12.60;85.20;;;;;;5053586;28;20049;-76
2022/09/21 03:52:21;;;;;;;4.18;1.70;;;12.60;85.40;;;;;;5052465;28;20055;-76
2022/09/21 03:54:47;;;;;;;4.45;1.90;;;12.60;85.50;;;;;;5052038;28;20025;-75
2022/09/21 03:57:13;;;;;;;2.97;1.60;;;12.60;85.60;;;;;;5052674;28;20033;-75
2022/09/21 03:59:38;;;;;;;3.15;1.60;;;12.60;85.60;;;;;;5052467;28;20056;-76
2022/09/21 04:02:04;;;;;;;2.08;1.70;;;12.60;85.40;;;;;;5051692;28;20041;-76
2022/09/21 04:04:30;;;;;;;2.83;1.80;;;12.70;85.40;;;;;;5052194;28;20064;-76
2022/09/21 04:06:57;;;;;;;3.55;2.03;;;12.70;85.40;;;;;;5052257;28;20045;-76
2022/09/21 04:09:23;;;;;;;3.70;1.80;;;12.70;85.40;;;;;;5051779;28;20029;-76
2022/09/21 04:11:48;;;;;;;7.07;2.25;;;12.70;85.50;;;;;;5052373;28;20043;-76
2022/09/21 04:14:14;;;;;;;3.80;1.90;;;12.70;85.60;;;;;;5052721;28;20063;-76
2022/09/21 04:16:40;;;;;;;5.47;2.13;;;12.70;85.60;;;;;;5055312;28;20060;-76
2022/09/21 04:19:05;;;;;;;6.18;2.10;;;12.70;85.60;;;;;;5055709;28;20492;-76
2022/09/21 04:21:34;;;;;;;3.13;1.90;;;12.70;85.60;;;;;;5055461;28;20094;-76
2022/09/21 04:24:00;;;;;;;3.75;2.65;;;12.60;85.50;;;;;;5054998;28;20408;-76
2022/09/21 04:26:33;;;;;;;2.20;1.77;;;12.60;85.50;;;;;;5055799;28;20098;-75
2022/09/21 04:29:00;;;;;;;3.88;2.25;;;12.60;85.50;;;;;;5055662;28;20446;-75
2022/09/21 04:31:26;;;;;;;2.95;1.90;;;12.60;85.40;;;;;;5043691;28;20037;-74
2022/09/21 04:33:54;;;;;;;3.35;2.05;;;12.60;85.30;;;;;;5033793;28;20103;-77
2022/09/21 04:36:21;;;;;;;3.50;1.92;;;12.60;85.20;;;;;;5035031;28;20034;-76
2022/09/21 04:38:47;;;;;;;2.92;1.70;;;12.60;85.10;;;;;;5034935;28;20061;-74
2022/09/21 04:41:14;;;;;;;4.72;1.70;;;12.50;85.00;;;;;;5035569;28;20041;-74
2022/09/21 04:43:44;;;;;;;3.78;1.60;;;12.60;85.00;;;;;;5034873;28;20034;-73
2022/09/21 04:46:15;;;;;;;8.38;1.88;;;12.50;84.90;;;;;;5035092;28;20389;-73
2022/09/21 04:48:42;;;;;;;5.13;1.80;;;12.50;84.90;;;;;;5033733;28;20064;-75
2022/09/21 04:51:09;;;;;;;6.13;2.20;;;12.50;84.90;;;;;;5034158;28;20055;-77
2022/09/21 04:53:37;;;;;;;3.88;1.80;;;12.50;85.00;;;;;;5034139;28;20025;-75
2022/09/21 04:56:04;;;;;;;4.40;1.73;;;12.50;85.00;;;;;;5044176;28;20032;-77
2022/09/21 04:58:30;;;;;;;3.58;1.65;;;12.50;85.00;;;;;;5053949;28;20476;-76
2022/09/21 05:00:56;;;;;;;5.53;1.70;;;12.40;84.90;;;;;;5053276;28;20070;-77
2022/09/21 05:03:23;;;;;;;3.88;1.55;;;12.50;84.90;;;;;;5047557;28;20596;-78
2022/09/21 05:05:51;;;;;;;5.97;1.60;;;12.40;85.00;;;;;;5054638;28;20037;-75
2022/09/21 05:11:02;;;;;;;4.05;1.90;;;12.40;84.90;;;;;;5053514;28;20387;-76
2022/09/21 05:13:28;;;;;;;2.72;1.50;;;12.40;84.90;;;;;;5053426;28;20033;-77
2022/09/21 05:15:53;;;;;;;2.63;1.60;;;12.40;84.90;;;;;;5054591;28;20112;-76
2022/09/21 05:18:19;;;;;;;3.20;1.88;;;12.40;85.00;;;;;;5054590;28;20056;-77
2022/09/21 05:20:53;;;;;;;2.53;1.52;;;12.30;85.00;;;;;;5052768;28;20029;-79
2022/09/21 05:23:18;;;;;;;2.53;1.70;;;12.30;85.10;;;;;;5054804;28;20048;-82
2022/09/21 05:25:44;;;;;;;2.00;1.70;;;12.30;85.10;;;;;;5048950;28;20029;-76
2022/09/21 05:28:10;;;;;;;3.30;1.60;;;12.30;85.20;;;;;;5052870;28;20028;-77
2022/09/21 05:30:36;;;;;;;3.70;1.73;;;12.30;85.40;;;;;;5053808;28;20110;-76
2022/09/21 05:33:03;;;;;;;4.05;2.20;;;12.30;85.60;;;;;;5051268;28;20033;-75
2022/09/21 05:35:57;;;;;;;2.97;2.00;;;12.30;85.80;;;;;;5052443;28;20032;-75
2022/09/21 05:38:23;;;;;;;3.58;2.03;;;12.30;86.00;;;;;;5049853;28;20039;-73
2022/09/21 05:40:49;;;;;;;3.92;1.90;;;12.30;86.00;;;;;;5051457;28;20021;-76
2022/09/21 05:43:16;;;;;;;4.22;1.83;;;12.30;86.10;;;;;;5052431;28;20033;-75
2022/09/21 05:45:50;;;;;;;4.30;2.33;;;12.30;86.30;;;;;;5051982;28;20036;-75
2022/09/21 05:48:32;;;;;;;5.00;2.10;;;12.20;86.50;;;;;;5048670;28;20072;-75
2022/09/21 05:51:08;;;;;;;6.55;1.85;;;12.30;86.70;;;;;;5051783;28;20059;-75
2022/09/21 05:53:53;;;;;;;2.67;1.92;;;12.20;86.70;;;;;;5054167;28;20452;-75
2022/09/21 05:56:59;;;;;;;4.28;1.92;;;12.20;86.80;;;;;;5048393;28;20061;-84
2022/09/21 05:59:58;;;;;;;4.70;2.20;;;12.20;86.80;;;;;;5035499;28;20048;-73
2022/09/21 06:02:54;;;;;;;3.50;1.80;;;12.20;86.80;;;;;;5032124;28;20037;-74
2022/09/21 06:05:20;;;;;;;7.20;1.80;;;12.20;86.90;;;;;;5034447;28;20061;-77
2022/09/21 06:07:46;;;;;;;7.68;2.15;;;12.20;87.00;;;;;;5034080;28;20044;-76
2022/09/21 06:10:12;;;;;;;7.65;2.03;;;12.20;87.20;;;;;;5034380;28;20384;-75
2022/09/21 06:12:39;;;;;;;7.20;2.20;;;12.20;87.40;;;;;;5045669;28;20076;-75
2022/09/21 06:15:06;;;;;;;7.40;2.20;;;12.20;87.70;;;;;;5052784;28;20060;-75
2022/09/21 06:17:32;;;;;;;3.78;2.22;;;12.20;87.90;;;;;;5053675;28;20373;-75
2022/09/21 06:19:58;;;;;;;14.02;2.70;;;12.20;88.10;;;;;;5053574;28;20036;-74
2022/09/21 06:22:23;;;;;;;5.35;2.20;;;12.20;88.10;;;;;;5053250;28;20052;-75
2022/09/21 06:24:49;;;;;;;5.50;2.08;;;12.20;88.30;;;;;;5053712;28;20033;-74
2022/09/21 06:27:15;;;;;;;4.88;2.83;;;12.30;88.40;;;;;;5053516;28;20025;-75
2022/09/21 06:29:40;;;;;;;5.85;1.95;;;12.20;88.40;;;;;;5052706;28;20044;-75
2022/09/21 06:32:06;;;;;;;3.53;2.17;;;12.20;88.40;;;;;;5053304;28;20048;-75
2022/09/21 06:34:31;;;;;;;4.55;1.90;;;12.20;88.10;;;;;;5053115;28;20029;-74
2022/09/21 06:36:57;;;;;;;6.47;2.50;;;12.20;88.00;;;;;;5052220;28;20031;-75
2022/09/21 06:39:23;;;;;;;5.32;2.10;;;12.10;88.10;;;;;;5052705;28;20431;-74
2022/09/21 06:41:48;;;;;;;8.27;2.10;;;12.20;88.50;;;;;;5051127;28;20057;-75
2022/09/21 06:44:15;;;;;;;3.80;1.92;;;12.20;88.70;;;;;;5050669;28;20021;-74
2022/09/21 06:46:40;;;;;;;5.70;1.73;;;12.20;88.70;;;;;;5045459;28;20028;-75
2022/09/21 06:49:06;;;;;;;10.07;1.77;;;12.20;88.60;;;;;;5048509;28;20017;-72
2022/09/21 06:51:31;;;;;;;7.30;1.92;;;12.30;88.50;;;;;;5048339;28;20088;-75
2022/09/21 06:53:57;;;;;;;5.72;2.00;;;12.20;88.50;;;;;;5049498;28;20087;-74
2022/09/21 06:56:24;;;;;;;4.15;2.00;;;12.20;88.70;;;;;;5049401;28;20051;-74
2022/09/21 06:58:51;;;;;;;4.40;1.98;;;12.30;88.80;;;;;;5049106;28;20025;-74
2022/09/21 07:01:20;;;;;;;6.90;2.00;;;12.30;88.90;;;;;;5049727;28;20036;-74
2022/09/21 07:03:50;;;;;;;6.60;2.28;;;12.30;89.00;;;;;;5042684;28;20051;-75
2022/09/21 07:06:17;;;;;;;6.60;2.28;;;12.40;89.00;;;;;;5047664;28;20021;-75
2022/09/21 07:08:43;;;;;;;8.20;2.50;;;12.40;88.80;;;;;;5050873;28;20135;-74
2022/09/21 07:11:09;;;;;;;6.38;2.20;;;12.40;89.00;;;;;;5050541;28;20033;-74
2022/09/21 07:13:35;;;;;;;7.45;2.33;;;12.40;89.10;;;;;;5050894;28;20029;-74
2022/09/21 07:16:05;;;;;;;4.28;2.28;;;12.40;89.20;;;;;;5050709;28;20412;-74
2022/09/21 07:18:33;;;;;;;7.18;2.15;;;12.40;89.50;;;;;;5050562;28;20689;-74
2022/09/21 07:21:03;;;;;;;8.27;2.08;;;12.40;89.20;;;;;;5053003;28;20416;-74
2022/09/21 07:23:28;;;;;;;13.27;2.25;;;12.50;89.50;;;;;;5053008;28;20391;-74
2022/09/21 07:25:54;;;;;;;3.67;1.98;;;12.40;88.90;;;;;;5052324;28;20036;-74
2022/09/21 07:28:20;;;;;;;5.40;2.05;;;12.40;88.80;;;;;;5052776;28;20108;-74
2022/09/21 07:30:48;;;;;;;11.40;2.38;;;12.50;88.70;;;;;;5052679;28;20436;-75
2022/09/21 07:33:14;;;;;;;5.35;2.42;;;12.50;89.00;;;;;;5051952;28;20124;-75
2022/09/21 07:35:49;;;;;;;6.43;2.83;;;12.60;89.10;;;;;;5047804;28;20535;-74
2022/09/21 07:38:15;;;;;;;5.68;2.10;;;12.60;89.60;;;;;;5052101;28;20043;-75
2022/09/21 07:40:41;;;;;;;9.68;1.63;;;12.60;89.10;;;;;;5051602;28;20032;-74
2022/09/21 07:43:06;;;;;;;5.50;1.90;;;12.60;88.30;;;;;;5051677;28;20037;-75
2022/09/21 07:45:32;;;;;;;9.45;1.70;;;12.60;88.60;;;;;;5052426;28;20035;-74
2022/09/21 07:48:05;;;;;;;6.78;1.70;;;12.60;88.30;;;;;;5052163;28;20123;-75
2022/09/21 07:50:34;;;;;;;8.63;2.25;;;12.70;88.40;;;;;;5054717;28;20412;-73
2022/09/21 07:53:01;;;;;;;5.80;2.42;;;12.60;88.00;;;;;;5056259;28;20412;-73
2022/09/21 07:55:30;;;;;;;9.57;2.15;;;12.70;88.30;;;;;;5055443;28;20529;-73
2022/09/21 08:00:40;;;;;;;14.15;2.45;;;12.70;87.90;;;;;;5054012;28;20672;-74
2022/09/21 08:03:06;;;;;;;4.85;1.63;;;12.70;87.40;;;;;;5055214;28;20116;-77
2022/09/21 08:05:32;;;;;;;21.27;1.80;;;12.70;87.50;;;;;;5055442;28;20033;-68
2022/09/21 08:07:58;;;;;;;3.33;1.65;;;12.70;88.00;;;;;;5055312;28;20055;-68
2022/09/21 08:10:27;;;;;;;3.95;1.83;;;12.70;88.30;;;;;;5056345;28;20025;-68
2022/09/21 08:12:54;;;;;;;15.48;2.30;;;12.70;89.10;;;;;;5055858;28;20443;-69
2022/09/21 08:15:20;;;;;;;2.60;1.55;;;12.80;89.80;;;;;;5051590;28;20029;-69
2022/09/21 08:17:47;;;;;;;6.82;1.77;;;12.80;88.90;;;;;;5055055;28;20052;-70
2022/09/21 08:20:13;;;;;;;6.40;1.50;;;12.90;88.70;;;;;;5055554;28;20065;-69
2022/09/21 08:22:39;;;;;;;1.77;1.02;;;12.90;88.40;;;;;;5055247;28;20068;-69
2022/09/21 08:25:05;;;;;;;3.97;1.45;;;12.90;87.70;;;;;;5055648;28;20033;-69
2022/09/21 08:27:31;;;;;;;10.20;1.30;;;13.00;88.10;;;;;;5055796;28;20040;-69
2022/09/21 08:29:57;;;;;;;7.53;1.80;;;13.00;87.50;;;;;;5054790;28;20396;-69
2022/09/21 08:32:22;;;;;;;9.85;1.88;;;13.00;88.00;;;;;;5055348;28;20102;-69
2022/09/21 08:34:48;;;;;;;6.75;1.50;;;13.00;87.90;;;;;;5055037;28;20087;-70
2022/09/21 08:37:15;;;;;;;3.95;1.13;;;13.00;88.30;;;;;;5053356;28;20083;-70
2022/09/21 08:39:41;;;;;;;3.30;1.60;;;13.10;88.50;;;;;;5054221;28;20029;-70
2022/09/21 08:42:09;;;;;;;8.82;1.30;;;13.00;88.80;;;;;;5055243;28;20108;-70
2022/09/21 08:44:50;;;;;;;18.35;2.25;;;13.10;89.20;;;;;;5054635;28;20025;-70
2022/09/21 08:47:33;;;;;;;6.70;1.27;;;13.10;89.70;;;;;;5055432;28;20193;-69
2022/09/21 08:50:01;;;;;;;4.60;1.40;;;13.20;89.30;;;;;;5054107;28;20799;-69
2022/09/21 08:52:27;;;;;;;4.45;1.10;;;13.20;89.80;;;;;;5055375;28;20055;-70
2022/09/21 08:55:01;;;;;;;3.30;1.13;;;13.20;89.70;;;;;;5055166;28;20032;-70
2022/09/21 08:57:29;;;;;;;2.33;0.60;;;13.30;89.80;;;;;;5054346;28;20033;-70
2022/09/21 08:59:55;;;;;;;8.35;1.13;;;13.30;89.50;;;;;;5055054;28;20032;-72
2022/09/21 09:02:49;;;;;;;4.03;0.77;;;13.30;89.30;;;;;;5054674;28;20060;-70
2022/09/21 09:05:18;;;;;;;9.27;0.80;;;13.40;89.60;;;;;;5054391;28;20021;-70
2022/09/21 09:08:08;;;;;;;1.60;0.73;;;13.40;89.30;;;;;;5054235;28;20052;-71
2022/09/21 09:10:42;;;;;;;7.82;1.13;;;13.40;89.30;;;;;;5053915;28;20103;-70
2022/09/21 09:13:35;;;;;;;4.82;0.80;;;13.50;89.70;;;;;;5053798;28;20060;-70
2022/09/21 09:16:34;;;;;;;3.30;0.77;;;13.50;89.70;;;;;;5054766;28;20064;-70
2022/09/21 09:19:09;;;;;;;8.77;1.00;;;13.60;89.60;;;;;;5054117;28;20040;-69
2022/09/21 09:21:39;;;;;;;9.05;1.27;;;13.60;89.70;;;;;;5054873;28;20028;-70
2022/09/21 09:24:31;;;;;;;11.23;1.10;;;13.70;89.90;;;;;;5054391;28;20033;-69
2022/09/21 09:27:16;;;;;;;5.47;1.02;;;13.70;89.70;;;;;;5053772;28;20452;-70
2022/09/21 09:29:54;;;;;;;4.95;0.77;;;13.80;90.10;;;;;;5050572;28;20387;-70
2022/09/21 09:32:26;;;;;;;6.13;1.08;;;13.90;89.90;;;;;;5053552;28;20033;-70
2022/09/21 09:35:03;;;;;;;11.82;1.15;;;13.90;89.50;;;;;;5054547;28;20455;-70
2022/09/21 09:37:33;;;;;;;10.85;1.10;;;13.90;89.90;;;;;;5054453;28;20036;-70
2022/09/21 09:40:00;;;;;;;5.25;1.30;;;14.00;89.70;;;;;;5053605;28;20056;-70
2022/09/21 09:42:34;;;;;;;8.63;1.30;;;14.10;89.60;;;;;;5054229;28;20064;-70
2022/09/21 09:45:36;;;;;;;2.60;0.70;;;14.20;89.90;;;;;;5054221;28;20027;-70
2022/09/21 09:48:20;;;;;;;8.05;1.27;;;14.30;89.40;;;;;;5055643;28;20037;-70
2022/09/21 09:50:46;;;;;;;6.18;1.10;;;14.40;89.30;;;;;;5058053;28;20049;-70
2022/09/21 09:53:16;;;;;;;5.35;1.38;;;14.50;89.40;;;;;;5059970;28;20041;-70
2022/09/21 09:55:48;;;;;;;21.23;3.42;;;14.50;89.10;;;;;;5060507;28;20083;-70
2022/09/21 09:58:48;;;;;;;6.88;1.13;;;14.60;88.90;;;;;;5059179;28;20040;-70
2022/09/21 10:01:41;;;;;;;5.78;0.93;;;14.70;88.50;;;;;;5056531;28;20044;-70
2022/09/21 10:04:09;;;;;;;15.70;1.33;;;14.80;88.30;;;;;;5051827;28;20116;-70
2022/09/21 10:06:36;;;;;;;4.00;0.80;;;14.90;88.10;;;;;;5059977;28;20064;-70
2022/09/21 10:09:25;;;;;;;11.48;1.88;;;14.90;87.80;;;;;;5060554;28;20104;-69
2022/09/21 10:11:53;;;;;;;10.07;1.52;;;15.00;87.70;;;;;;5055139;28;20411;-69
2022/09/21 10:14:22;;;;;;;6.60;1.10;;;15.10;87.60;;;;;;5056037;28;20036;-69
2022/09/21 10:16:52;;;;;;;5.80;1.27;;;15.20;87.40;;;;;;5057518;28;20167;-69
2022/09/21 10:19:27;;;;;;;8.00;1.23;;;15.30;87.80;;;;;;5058966;28;20488;-70
2022/09/21 10:22:02;;;;;;;10.27;1.40;;;15.40;87.50;;;;;;5056375;28;20048;-70
2022/09/21 10:24:34;;;;;;;4.78;1.33;;;15.50;87.20;;;;;;5057871;28;20025;-69
2022/09/21 10:27:11;;;;;;;5.35;1.52;;;15.60;87.00;;;;;;5061343;28;20037;-69
2022/09/21 10:29:48;;;;;;;6.13;1.27;;;15.70;86.50;;;;;;5059346;28;20065;-70
2022/09/21 10:32:15;;;;;;;8.30;1.83;;;15.80;86.10;;;;;;5059764;28;20051;-70
2022/09/21 10:35:18;;;;;;;4.38;1.20;;;15.90;86.10;;;;;;5059488;28;20039;-69
2022/09/21 10:38:06;;;;;;;4.85;1.10;;;16.00;85.90;;;;;;5057397;28;20407;-70
2022/09/21 10:40:36;;;;;;;2.50;0.75;;;15.90;85.70;;;;;;5057561;28;20040;-70
2022/09/21 10:43:02;;;;;;;2.10;0.98;;;16.00;85.90;;;;;;5057173;28;20554;-70
2022/09/21 10:45:30;;;;;;;7.95;1.15;;;16.10;85.80;;;;;;5058012;28;20062;-70
2022/09/21 10:47:58;;;;;;;3.20;1.10;;;16.10;85.80;;;;;;5057047;28;20049;-70
2022/09/21 10:50:40;;;;;;;5.93;1.38;;;16.20;86.10;;;;;;5056985;28;20110;-69
2022/09/21 10:53:08;;;;;;;5.45;1.23;;;16.20;85.90;;;;;;5059150;28;20045;-69
2022/09/21 10:55:43;;;;;;;6.45;0.70;;;16.30;85.70;;;;;;5054120;28;20029;-69
2022/09/21 10:58:11;;;;;;;3.97;1.10;;;16.50;85.90;;;;;;5042102;28;20075;-69
2022/09/21 11:00:50;;;;;;;3.63;1.05;;;16.50;85.80;;;;;;5041226;28;20144;-69
2022/09/21 11:03:46;;;;;;;6.28;0.90;;;16.60;84.90;;;;;;5036522;28;20045;-70
2022/09/21 11:06:29;;;;;;;8.98;1.20;;;16.70;84.20;;;;;;5037536;28;20029;-69
2022/09/21 11:09:15;;;;;;;6.00;1.00;;;16.80;83.60;;;;;;5041808;28;20041;-70
2022/09/21 11:12:07;;;;;;;12.85;1.35;;;16.80;83.40;;;;;;5040182;28;20480;-69
2022/09/21 11:15:03;;;;;;;4.90;0.85;;;17.00;82.60;;;;;;5056196;28;20083;-68
2022/09/21 11:17:35;;;;;;;5.88;1.20;;;17.10;82.50;;;;;;5059830;28;20441;-72
2022/09/21 11:20:46;;;;;;;6.28;0.90;;;17.20;82.40;;;;;;5059933;28;20057;-73
2022/09/21 11:23:34;;;;;;;6.72;1.42;;;17.30;82.80;;;;;;5057981;28;20439;-72
2022/09/21 11:26:11;;;;;;;2.95;1.00;;;17.30;82.30;;;;;;5039664;28;20068;-72
2022/09/21 11:28:48;;;;;;;2.30;0.95;;;17.30;82.00;;;;;;5036895;28;20039;-72
2022/09/21 11:31:14;;;;;;;7.30;0.93;;;17.30;81.90;;;;;;5053214;28;20040;-72
2022/09/21 11:34:09;;;;;;;6.57;0.93;;;17.40;81.80;;;;;;5056401;28;20068;-72
2022/09/21 11:36:49;;;;;;;4.75;0.80;;;17.40;81.40;;;;;;5056804;28;20029;-72
2022/09/21 11:39:40;;;;;;;8.80;1.25;;;17.50;80.60;;;;;;5056260;28;20036;-72
2022/09/21 11:42:17;;;;;;;6.25;1.05;;;17.50;80.80;;;;;;5056486;28;20207;-72
2022/09/21 11:44:54;;;;;;;4.45;1.30;;;17.60;80.60;;;;;;5056596;28;20033;-72
2022/09/21 11:47:54;;;;;;;6.10;0.93;;;17.60;80.30;;;;;;5055889;28;20044;-72
2022/09/21 11:50:35;;;;;;;5.15;1.20;;;17.70;80.50;;;;;;5056194;28;20404;-72
2022/09/21 11:53:01;;;;;;;6.40;1.23;;;17.60;80.30;;;;;;5055628;28;20041;-72
2022/09/21 11:55:51;;;;;;;7.13;1.02;;;17.80;80.30;;;;;;5056249;28;20087;-72
2022/09/21 11:58:26;;;;;;;5.75;1.02;;;17.80;79.60;;;;;;5056280;28;20037;-72
2022/09/21 12:01:04;;;;;;;3.15;1.00;;;17.80;79.20;;;;;;5055727;28;20457;-72
2022/09/21 12:03:55;;;;;;;10.35;1.38;;;17.90;78.90;;;;;;5056035;28;20083;-72
2022/09/21 12:06:56;;;;;;;4.93;0.63;;;18.00;77.50;;;;;;5056328;28;20033;-72
2022/09/21 12:09:39;;;;;;;3.40;0.82;;;18.00;77.20;;;;;;5056241;28;20033;-72
2022/09/21 12:12:05;;;;;;;;;;;18.10;77.00;;;;;;5056503;28;20068;-72
2022/09/21 12:15:01;;;;;;;2.95;0.75;;;18.20;78.40;;;;;;5055218;28;19956;-72
2022/09/21 12:17:48;;;;;;;4.35;1.10;;;18.20;78.20;;;;;;5047670;28;20045;-72
2022/09/21 12:20:33;;;;;;;7.63;1.15;;;18.30;78.10;;;;;;5035661;28;20075;-72
2022/09/21 12:23:03;;;;;;;4.35;0.82;;;18.30;76.80;;;;;;5035485;28;20116;-75
2022/09/21 12:25:36;;;;;;;4.43;0.98;;;18.40;76.00;;;;;;5035866;28;20036;-72
2022/09/21 12:28:07;;;;;;;6.10;0.73;;;18.40;76.50;;;;;;5033227;28;20029;-72
2022/09/21 12:30:34;;;;;;;3.75;1.13;;;18.50;77.30;;;;;;5033753;28;20029;-72
2022/09/21 12:33:21;;;;;;;7.03;1.58;;;18.50;77.30;;;;;;5033440;28;20083;-72
2022/09/21 12:35:55;;;;;;;1.98;0.70;;;18.60;77.50;;;;;;5032739;28;20071;-73
2022/09/21 12:38:43;;;;;;;4.18;0.82;;;18.60;77.70;;;;;;5034898;28;20022;-71
2022/09/21 12:41:23;;;;;;;6.22;1.13;;;18.70;77.90;;;;;;5043147;28;20380;-72
2022/09/21 12:44:13;;;;;;;9.88;1.10;;;18.70;78.20;;;;;;5032265;28;20095;-72
2022/09/21 12:47:08;;;;;;;9.05;1.02;;;18.70;78.70;;;;;;5032043;28;20033;-72
2022/09/21 12:49:40;;;;;;;5.82;1.08;;;18.80;79.30;;;;;;5031097;28;20041;-72
2022/09/21 12:52:07;;;;;;;5.30;1.10;;;18.70;79.30;;;;;;5031324;28;20049;-72
2022/09/21 12:55:09;;;;;;;6.47;1.17;;;18.70;79.60;;;;;;5031836;28;20072;-72
2022/09/21 12:58:02;;;;;;;2.38;0.90;;;18.70;79.10;;;;;;5030312;28;20396;-72
2022/09/21 13:00:35;;;;;;;5.97;1.03;;;18.70;79.10;;;;;;5030050;28;20029;-72
2022/09/21 13:03:26;;;;;;;6.07;1.00;;;18.70;79.60;;;;;;5030742;28;20033;-73
2022/09/21 13:06:23;;;;;;;5.30;1.20;;;18.70;79.10;;;;;;5029676;28;20338;-73
2022/09/21 13:08:49;;;;;;;9.00;1.27;;;18.70;79.30;;;;;;5029646;28;20049;-73
2022/09/21 13:11:20;;;;;;;8.55;0.95;;;18.80;79.50;;;;;;5028800;28;20037;-73
2022/09/21 13:13:58;;;;;;;12.60;1.27;;;18.70;79.00;;;;;;5028319;28;20835;-74
2022/09/21 13:16:33;;;;;;;5.80;1.38;;;18.80;79.00;;;;;;5034785;28;20026;-74
2022/09/21 13:18:59;;;;;;;4.32;0.90;;;18.70;78.50;;;;;;5030654;28;20056;-74
2022/09/21 13:21:31;;;;;;;3.83;1.38;;;18.80;78.40;;;;;;5031032;28;20492;-75